Station info - map view · info · telemetry · weather · raw · status · beacons · messages · bulletins · browse · moving · my account
Callsign, ship name or locator: Clear       
It is possible to search using wildcards (*?) after a prefix. Example: OH*
APRS station W2JKT-9 - show graphs
Map loading...
Comment: PHILIPPIANS 4:8
Mic-E message: En route
Location: 34°39.88' N 82°55.89' W - locator EM84MP89FM - show map - static map
0.9 miles South bearing 180° from Utica, Oconee County, South Carolina, United States [?]
1.9 miles Southeast bearing 140° from Seneca, Oconee County, South Carolina, United States
54.9 miles Northeast bearing 28° from Athens, Clarke County, Georgia, United States
68.1 miles South bearing 198° from Asheville, Buncombe County, North Carolina, United States
Last position: 2017-06-19 17:15:54 EDT (2d 21h24m ago)
2017-06-19 17:15:54 EDT local time at Utica, United States [?]
Altitude: 912 ft
Course: 22°
Device: Kenwood: TM-D710 (rig)
Last path: W2JKT-9>ST3Y8X via WD4EOG-1*,qAR,N4NE-2 (good)
Positions stored: 45234
Packet rate: 77 seconds between packets on average during 3854 seconds.
Other SSIDs: W2JKT-10 W2JKT-3 W2JKT-5
APRS digipeater – Statistics for 2017-06:
Stations heard directly: 1 on radio path – show map
Last heard a station directly: 2017-01-12 16:28:49 EST (160d 21h11m ago)
Position packets heard directly: 1 on radio path
Stations near current position of W2JKT-9 - show more
callsign distance last heard - EDT      callsign distance last heard - EDT
KCEU2.7 miles 87°2017-06-10 08:05:19 W2JKT-102.9 miles 322°2017-06-15 20:27:28
KF4KJT3.6 miles 258°2017-06-22 14:30:32 K4ASE-93.7 miles 304°2017-05-25 11:01:06
EW35854.8 miles 158°2017-06-22 14:36:16 KJ4YLP5.0 miles 303°2017-06-22 14:33:32
EW74865.2 miles 340°2017-06-22 14:36:21 WD4EOG-B5.8 miles 81°2017-06-22 14:32:05
WD4EOG B5.8 miles 81°2017-06-22 14:32:20 K4ADB6.2 miles 38°2017-05-28 19:37:09
WD4EOG-16.4 miles 81°2017-06-22 14:39:31 N4LRD-28.8 miles 84°2017-06-22 14:04:19
K5NAA-i11.8 miles 0°2017-06-22 08:01:08 WS4P15.8 miles 342°2017-05-27 09:50:32
KAND16.7 miles 133°2017-06-10 08:04:35 N297NW17.4 miles 129°2017-06-18 18:12:56
EW390518.2 miles 51°2017-06-22 14:34:48 KS4XQ20.3 miles 70°2017-06-22 14:36:56
EW976722.3 miles 80°2017-06-16 13:21:39 GSPSVRLbA22.4 miles 84°2017-06-13 18:19:43
Stations which heard W2JKT-9 directly on radio –
callsign pkts first heard - EDT last heard longest (tx => rx) longest at - EDT
N4VDE-3 145 2017-06-02 15:34:29 2017-06-19 16:59:51 EM84SJ > EM85QC 51.6 miles 350° 2017-06-02 15:34:29
N3IJW 7 2017-06-01 11:43:37 2017-06-02 04:51:52 FM18JR > FM18KT 7.1 miles 52° 2017-06-02 04:51:52
KD4PBS-3 3 2017-06-02 08:57:37 2017-06-02 09:09:47 FM07JH > FM05RQ 118.6 miles 162° 2017-06-02 08:58:40
N3HF-1 8 2017-06-02 04:50:23 2017-06-02 06:12:25 FM18CQ > FM18GQ 19.9 miles 89° 2017-06-02 06:12:25
W4IFI 37 2017-06-02 05:18:48 2017-06-02 06:18:57 FM18CO > FM18DS 11.1 miles 19° 2017-06-02 06:18:57
K4FI-3 26 2017-06-02 13:46:15 2017-06-17 09:37:47 EM84MP > EM94HE 93.0 miles 110° 2017-06-17 08:03:22
NV4FM-5 3 2017-06-01 11:45:09 2017-06-01 12:38:57 FM18JR > FM18JV 11.5 miles 359° 2017-06-01 12:38:57
W4DEX 30 2017-06-02 11:09:09 2017-06-02 12:45:19 EM95GD > EM95TG 61.0 miles 84° 2017-06-02 12:45:19
KG4GIY 5 2017-06-02 05:10:44 2017-06-02 05:23:20 FM18ET > FM18GR 8.1 miles 116° 2017-06-02 05:23:20
KV3B-1 7 2017-06-02 04:43:34 2017-06-02 06:14:26 FM18CP > FM19JE 47.4 miles 39° 2017-06-02 06:14:26
K4CQ-4 32 2017-06-02 08:22:20 2017-06-02 10:05:40 FM06GM > FM07JN 72.4 miles 12° 2017-06-02 10:05:40
K4CQ-3 2 2017-06-02 08:36:33 2017-06-02 09:06:43 FM07KJ > FM07GG 18.5 miles 246° 2017-06-02 08:36:33
KJ4RPW-3 29 2017-06-02 06:40:41 2017-06-02 07:38:11 FM08XK > FM07SX 39.8 miles 215° 2017-06-02 06:40:41
W4UNC-3 1 2017-06-02 09:00:38 2017-06-02 09:00:38 FM07JG > FM06NF 73.2 miles 169° 2017-06-02 09:00:38
WD4EOG-1 139 2017-06-03 13:16:47 2017-06-19 17:15:54 EM84LS > EM84OQ 14.9 miles 114° 2017-06-03 13:48:50
WW4GW-4 9 2017-06-02 08:11:14 2017-06-02 09:46:32 FM06HR > FM07JT 73.4 miles 8° 2017-06-02 09:46:32
KA4VMP-10 1 2017-06-02 08:14:15 2017-06-02 08:14:15 FM07MP > FM08LB 29.9 miles 356° 2017-06-02 08:14:15
W4VA-10 19 2017-06-01 11:44:09 2017-06-02 06:16:26 FM18JR > FM18BR 33.6 miles 269° 2017-06-01 11:46:09
AB4D 1 2017-06-02 06:42:43 2017-06-02 06:42:43 FM08WK > FM08VW 35.2 miles 347° 2017-06-02 06:42:43
W4GR-9 1 2017-06-12 06:34:27 2017-06-12 06:34:27 EM84MP > EM84AC 70.0 miles 238° 2017-06-12 06:34:27
WJ4X-4 19 2017-06-02 15:11:17 2017-06-02 15:37:58 EM84SJ > EM84UI 10.9 miles 112° 2017-06-02 15:37:58
KK4ZUU 15 2017-06-02 05:02:41 2017-06-02 05:32:49 FM18DS > FM18GT 13.4 miles 72° 2017-06-02 05:32:49
KJ4PGD-1 9 2017-06-02 08:03:52 2017-06-02 08:41:00 FM07JI > FM07OP 28.7 miles 46° 2017-06-02 08:41:00
W3SMD-1 1 2017-06-02 04:47:18 2017-06-02 04:47:18 FM18JR > FM18PL 32.5 miles 122° 2017-06-02 04:47:18
W4KEL-1 20 2017-06-02 06:56:41 2017-06-02 07:35:35 FM08UI > FM08RD 20.3 miles 228° 2017-06-02 06:56:41
W4PSC-3 12 2017-06-02 12:01:27 2017-06-02 14:07:39 EM94BL > EM94JX 50.4 miles 47° 2017-06-02 14:07:39
KI4WXS-5 26 2017-06-02 11:21:21 2017-06-02 12:59:42 EM95GD > EM95PG 43.7 miles 82° 2017-06-02 12:38:50
K4OGB-9 1 2017-06-02 12:02:28 2017-06-02 12:02:28 EM95NG > EM95UI 31.2 miles 79° 2017-06-02 12:02:28
KM4KAW 9 2017-06-02 06:27:01 2017-06-02 06:40:10 FM18BM > FM18AK 8.9 miles 242° 2017-06-02 06:27:01
W4DHW-1 5 2017-06-02 08:37:27 2017-06-02 09:03:09 FM07JG > FM07HR 35.4 miles 343° 2017-06-02 09:03:09
N4NE-2 5 2017-06-16 20:39:27 2017-06-18 19:16:57 EM84MP > EM74WF 75.7 miles 248° 2017-06-17 08:01:50
KA3OCS-1 4 2017-06-02 04:48:20 2017-06-02 04:56:05 FM18IS > FM18NE 46.5 miles 152° 2017-06-02 04:56:05
K4MRA-4 1 2017-06-02 06:39:42 2017-06-02 06:39:42 FM08XK > FM08OU 49.5 miles 304° 2017-06-02 06:39:42

Only position packets which were originated by the station are shown here. The range statistics show some extra long hops, because some digipeaters do not correctly add themselves to the digipeater path. Please check the raw packets.
Stations heard directly by W2JKT-9
callsign pkts first heard - EDT last heard longest (rx => tx) longest at - EDT
K2LLC-8 1 2017-06-02 08:43:34 2017-06-02 08:43:34 FM07JI > FM07JI 433.5 yards 63° 2017-06-02 08:43:34

Only stations from which a position packet has been heard are shown here. The range statistics show some extra long hops, because some digipeaters do not correctly add themselves to the digipeater path. Please check the raw packets.
About this site
This page shows real-time information collected from the Automatic Position Reporting System Internet network (APRS-IS). APRS is used by amateur (ham) radio operators to transmit real-time position information, weather data, telemetry and messages over the radio. A vehicle equipped with a GPS receiver, a VHF transmitter or HF transceiver and a small computer device called a tracker transmits it's location, speed and course in a small data packet, which is then received by a nearby iGate receiving site which forwards the packet on the Internet. Systems connected to the Internet can send information on the APRS-IS without a radio transmitter, or collect and display information transmitted anywhere in the world.
FAQ · Blog · Discussion group · Linking to aprs.fi · AIS sites · Service status · Database statistics · Advertising on aprs.fi · Technical details · API · Change log · Planned changes · Credits and thanks · Terms Of Service · iPhone/iPad APRS